sensor_id;sensor_type;location;lat;lon;timestamp;temperature;humidity
35796;DHT22;21916;52.428;13.302;2022-12-07T00:01:07;2.60;99.90
35796;DHT22;21916;52.428;13.302;2022-12-07T00:03:35;2.70;99.90
35796;DHT22;21916;52.428;13.302;2022-12-07T00:06:02;2.70;99.90
35796;DHT22;21916;52.428;13.302;2022-12-07T00:08:28;2.60;99.90
35796;DHT22;21916;52.428;13.302;2022-12-07T00:10:54;2.60;99.90
35796;DHT22;21916;52.428;13.302;2022-12-07T00:13:20;2.60;99.90
35796;DHT22;21916;52.428;13.302;2022-12-07T00:15:46;2.60;99.90
35796;DHT22;21916;52.428;13.302;2022-12-07T00:18:12;2.50;99.90
35796;DHT22;21916;52.428;13.302;2022-12-07T00:20:38;2.40;99.90
35796;DHT22;21916;52.428;13.302;2022-12-07T00:23:04;2.50;99.90
35796;DHT22;21916;52.428;13.302;2022-12-07T00:25:30;2.50;99.90
35796;DHT22;21916;52.428;13.302;2022-12-07T00:27:56;2.50;99.90
35796;DHT22;21916;52.428;13.302;2022-12-07T00:30:23;2.40;99.90
35796;DHT22;21916;52.428;13.302;2022-12-07T00:32:50;2.40;99.90
35796;DHT22;21916;52.428;13.302;2022-12-07T00:35:16;2.30;99.90
35796;DHT22;21916;52.428;13.302;2022-12-07T00:37:41;2.20;99.90
35796;DHT22;21916;52.428;13.302;2022-12-07T00:40:08;2.20;99.90
35796;DHT22;21916;52.428;13.302;2022-12-07T00:42:34;2.10;99.90
35796;DHT22;21916;52.428;13.302;2022-12-07T00:44:59;2.00;99.90
35796;DHT22;21916;52.428;13.302;2022-12-07T00:47:25;2.00;99.90
35796;DHT22;21916;52.428;13.302;2022-12-07T00:49:52;2.00;99.90
35796;DHT22;21916;52.428;13.302;2022-12-07T00:52:17;2.00;99.90
35796;DHT22;21916;52.428;13.302;2022-12-07T00:54:43;2.00;99.90
35796;DHT22;21916;52.428;13.302;2022-12-07T00:57:09;2.00;99.90
35796;DHT22;21916;52.428;13.302;2022-12-07T00:59:35;2.00;99.90
35796;DHT22;21916;52.428;13.302;2022-12-07T01:02:10;2.00;99.90
35796;DHT22;21916;52.428;13.302;2022-12-07T01:04:36;2.00;99.90
35796;DHT22;21916;52.428;13.302;2022-12-07T01:07:01;2.10;99.90
35796;DHT22;21916;52.428;13.302;2022-12-07T01:09:27;2.10;99.90
35796;DHT22;21916;52.428;13.302;2022-12-07T01:11:53;2.10;99.90
35796;DHT22;21916;52.428;13.302;2022-12-07T01:14:19;2.10;99.90
35796;DHT22;21916;52.428;13.302;2022-12-07T01:16:45;2.10;99.90
35796;DHT22;21916;52.428;13.302;2022-12-07T01:19:11;2.10;99.90
35796;DHT22;21916;52.428;13.302;2022-12-07T01:21:38;2.20;99.90
35796;DHT22;21916;52.428;13.302;2022-12-07T01:24:07;2.20;99.90
35796;DHT22;21916;52.428;13.302;2022-12-07T01:26:33;2.20;99.90
35796;DHT22;21916;52.428;13.302;2022-12-07T01:28:59;2.10;99.90
35796;DHT22;21916;52.428;13.302;2022-12-07T01:31:26;2.10;99.90
35796;DHT22;21916;52.428;13.302;2022-12-07T01:33:55;2.20;99.90
35796;DHT22;21916;52.428;13.302;2022-12-07T01:36:24;2.20;99.90
35796;DHT22;21916;52.428;13.302;2022-12-07T01:38:53;2.20;99.90
35796;DHT22;21916;52.428;13.302;2022-12-07T01:41:24;2.10;99.90
35796;DHT22;21916;52.428;13.302;2022-12-07T01:46:55;2.20;99.90
35796;DHT22;21916;52.428;13.302;2022-12-07T01:52:10;2.20;99.90
35796;DHT22;21916;52.428;13.302;2022-12-07T01:54:38;2.20;99.90
35796;DHT22;21916;52.428;13.302;2022-12-07T01:57:06;2.20;99.90
35796;DHT22;21916;52.428;13.302;2022-12-07T01:59:33;2.30;99.90
35796;DHT22;21916;52.428;13.302;2022-12-07T02:02:02;2.20;99.90
35796;DHT22;21916;52.428;13.302;2022-12-07T02:04:30;2.20;99.90
35796;DHT22;21916;52.428;13.302;2022-12-07T02:06:57;2.10;99.90
35796;DHT22;21916;52.428;13.302;2022-12-07T02:09:23;2.10;99.90
35796;DHT22;21916;52.428;13.302;2022-12-07T02:11:50;2.00;99.90
35796;DHT22;21916;52.428;13.302;2022-12-07T02:14:16;2.00;99.90
35796;DHT22;21916;52.428;13.302;2022-12-07T02:17:10;1.90;99.90
35796;DHT22;21916;52.428;13.302;2022-12-07T02:20:04;1.90;99.90
35796;DHT22;21916;52.428;13.302;2022-12-07T02:28:05;1.70;99.90
35796;DHT22;21916;52.428;13.302;2022-12-07T02:30:35;1.70;99.90
35796;DHT22;21916;52.428;13.302;2022-12-07T02:33:33;1.70;99.90
35796;DHT22;21916;52.428;13.302;2022-12-07T02:36:06;1.70;99.90
35796;DHT22;21916;52.428;13.302;2022-12-07T02:38:43;1.70;99.90
35796;DHT22;21916;52.428;13.302;2022-12-07T02:41:16;1.60;99.90
35796;DHT22;21916;52.428;13.302;2022-12-07T02:43:47;1.60;99.90
35796;DHT22;21916;52.428;13.302;2022-12-07T02:46:18;1.50;99.90
35796;DHT22;21916;52.428;13.302;2022-12-07T02:48:46;1.50;99.90
35796;DHT22;21916;52.428;13.302;2022-12-07T02:51:13;1.40;99.90
35796;DHT22;21916;52.428;13.302;2022-12-07T02:53:40;1.50;99.90
35796;DHT22;21916;52.428;13.302;2022-12-07T02:56:29;1.50;99.90
35796;DHT22;21916;52.428;13.302;2022-12-07T02:59:29;1.40;99.90
35796;DHT22;21916;52.428;13.302;2022-12-07T03:10:38;1.40;99.90
35796;DHT22;21916;52.428;13.302;2022-12-07T03:15:56;1.40;99.90
35796;DHT22;21916;52.428;13.302;2022-12-07T03:18:25;1.40;99.90
35796;DHT22;21916;52.428;13.302;2022-12-07T03:20:56;1.40;99.90
35796;DHT22;21916;52.428;13.302;2022-12-07T03:23:25;1.50;99.90
35796;DHT22;21916;52.428;13.302;2022-12-07T03:25:55;1.50;99.90
35796;DHT22;21916;52.428;13.302;2022-12-07T03:28:24;1.40;99.90
35796;DHT22;21916;52.428;13.302;2022-12-07T03:30:57;1.50;99.90
35796;DHT22;21916;52.428;13.302;2022-12-07T03:33:31;1.40;99.90
35796;DHT22;21916;52.428;13.302;2022-12-07T03:41:38;1.60;99.90
35796;DHT22;21916;52.428;13.302;2022-12-07T03:44:05;1.60;99.90
35796;DHT22;21916;52.428;13.302;2022-12-07T03:46:36;1.60;99.90
35796;DHT22;21916;52.428;13.302;2022-12-07T03:49:23;1.60;99.90
35796;DHT22;21916;52.428;13.302;2022-12-07T03:52:37;1.60;99.90
35796;DHT22;21916;52.428;13.302;2022-12-07T03:57:37;1.60;99.90
35796;DHT22;21916;52.428;13.302;2022-12-07T04:00:06;1.60;99.90
35796;DHT22;21916;52.428;13.302;2022-12-07T04:02:43;1.60;99.90
35796;DHT22;21916;52.428;13.302;2022-12-07T04:05:10;1.60;99.90
35796;DHT22;21916;52.428;13.302;2022-12-07T04:07:45;1.60;99.90
35796;DHT22;21916;52.428;13.302;2022-12-07T04:10:11;1.60;99.90
35796;DHT22;21916;52.428;13.302;2022-12-07T04:12:43;1.60;99.90
35796;DHT22;21916;52.428;13.302;2022-12-07T04:15:09;1.50;99.90
35796;DHT22;21916;52.428;13.302;2022-12-07T04:18:00;1.50;99.90
35796;DHT22;21916;52.428;13.302;2022-12-07T04:20:32;1.50;99.90
35796;DHT22;21916;52.428;13.302;2022-12-07T04:22:58;1.40;99.90
35796;DHT22;21916;52.428;13.302;2022-12-07T04:25:30;1.30;99.90
35796;DHT22;21916;52.428;13.302;2022-12-07T04:27:56;1.30;99.90
35796;DHT22;21916;52.428;13.302;2022-12-07T04:30:22;1.30;99.90
35796;DHT22;21916;52.428;13.302;2022-12-07T04:32:48;1.30;99.90
35796;DHT22;21916;52.428;13.302;2022-12-07T04:35:14;1.40;99.90
35796;DHT22;21916;52.428;13.302;2022-12-07T04:37:40;1.30;99.90
35796;DHT22;21916;52.428;13.302;2022-12-07T04:40:10;1.40;99.90
35796;DHT22;21916;52.428;13.302;2022-12-07T04:42:37;1.40;99.90
35796;DHT22;21916;52.428;13.302;2022-12-07T04:45:04;1.40;99.90
35796;DHT22;21916;52.428;13.302;2022-12-07T04:47:30;1.50;99.90
35796;DHT22;21916;52.428;13.302;2022-12-07T04:49:59;1.40;99.90
35796;DHT22;21916;52.428;13.302;2022-12-07T04:52:24;1.50;99.90
35796;DHT22;21916;52.428;13.302;2022-12-07T04:54:50;1.50;99.90
35796;DHT22;21916;52.428;13.302;2022-12-07T04:57:19;1.60;99.90
35796;DHT22;21916;52.428;13.302;2022-12-07T04:59:45;1.60;99.90
35796;DHT22;21916;52.428;13.302;2022-12-07T05:02:11;1.70;99.90
35796;DHT22;21916;52.428;13.302;2022-12-07T05:04:37;1.70;99.90
35796;DHT22;21916;52.428;13.302;2022-12-07T05:07:03;1.70;99.90
35796;DHT22;21916;52.428;13.302;2022-12-07T05:09:29;1.80;99.90
35796;DHT22;21916;52.428;13.302;2022-12-07T05:11:54;1.70;99.90
35796;DHT22;21916;52.428;13.302;2022-12-07T05:14:21;1.80;99.90
35796;DHT22;21916;52.428;13.302;2022-12-07T05:16:49;1.80;99.90
35796;DHT22;21916;52.428;13.302;2022-12-07T05:19:17;1.90;99.90
35796;DHT22;21916;52.428;13.302;2022-12-07T05:21:43;1.90;99.90
35796;DHT22;21916;52.428;13.302;2022-12-07T05:24:11;1.90;99.90
35796;DHT22;21916;52.428;13.302;2022-12-07T05:26:37;1.90;99.90
35796;DHT22;21916;52.428;13.302;2022-12-07T05:29:03;1.90;99.90
35796;DHT22;21916;52.428;13.302;2022-12-07T05:31:29;2.00;99.90
35796;DHT22;21916;52.428;13.302;2022-12-07T05:33:55;2.00;99.90
35796;DHT22;21916;52.428;13.302;2022-12-07T05:36:22;2.00;99.90
35796;DHT22;21916;52.428;13.302;2022-12-07T05:38:48;2.00;99.90
35796;DHT22;21916;52.428;13.302;2022-12-07T05:41:16;2.10;99.90
35796;DHT22;21916;52.428;13.302;2022-12-07T05:44:01;2.10;99.90
35796;DHT22;21916;52.428;13.302;2022-12-07T05:46:28;2.10;99.90
35796;DHT22;21916;52.428;13.302;2022-12-07T05:48:54;2.20;99.90
35796;DHT22;21916;52.428;13.302;2022-12-07T05:51:20;2.20;99.90
35796;DHT22;21916;52.428;13.302;2022-12-07T05:53:46;2.20;99.90
35796;DHT22;21916;52.428;13.302;2022-12-07T05:56:12;2.30;99.90
35796;DHT22;21916;52.428;13.302;2022-12-07T05:58:38;2.30;99.90
35796;DHT22;21916;52.428;13.302;2022-12-07T06:01:22;2.30;99.90
35796;DHT22;21916;52.428;13.302;2022-12-07T06:03:48;2.30;99.90
35796;DHT22;21916;52.428;13.302;2022-12-07T06:06:15;2.50;99.90
35796;DHT22;21916;52.428;13.302;2022-12-07T06:08:42;2.40;99.90
35796;DHT22;21916;52.428;13.302;2022-12-07T06:11:07;2.40;99.90
35796;DHT22;21916;52.428;13.302;2022-12-07T06:13:52;2.50;99.90
35796;DHT22;21916;52.428;13.302;2022-12-07T06:16:18;2.60;99.90
35796;DHT22;21916;52.428;13.302;2022-12-07T06:18:44;2.50;99.90
35796;DHT22;21916;52.428;13.302;2022-12-07T06:21:10;2.50;99.90
35796;DHT22;21916;52.428;13.302;2022-12-07T06:23:36;2.50;99.90
35796;DHT22;21916;52.428;13.302;2022-12-07T06:26:02;2.60;99.90
35796;DHT22;21916;52.428;13.302;2022-12-07T06:28:28;2.60;99.90
35796;DHT22;21916;52.428;13.302;2022-12-07T06:31:01;2.60;99.90
35796;DHT22;21916;52.428;13.302;2022-12-07T06:33:28;2.60;99.90
35796;DHT22;21916;52.428;13.302;2022-12-07T06:35:54;2.60;99.90
35796;DHT22;21916;52.428;13.302;2022-12-07T06:38:21;2.60;99.90
35796;DHT22;21916;52.428;13.302;2022-12-07T06:40:47;2.60;99.90
35796;DHT22;21916;52.428;13.302;2022-12-07T06:43:14;2.70;99.90
35796;DHT22;21916;52.428;13.302;2022-12-07T06:45:41;2.70;99.90
35796;DHT22;21916;52.428;13.302;2022-12-07T06:48:07;2.80;99.90
35796;DHT22;21916;52.428;13.302;2022-12-07T06:50:33;2.80;99.90
35796;DHT22;21916;52.428;13.302;2022-12-07T06:52:59;2.80;99.90
35796;DHT22;21916;52.428;13.302;2022-12-07T06:55:31;2.80;99.90
35796;DHT22;21916;52.428;13.302;2022-12-07T06:57:57;2.90;99.90
35796;DHT22;21916;52.428;13.302;2022-12-07T07:00:25;2.90;99.90
35796;DHT22;21916;52.428;13.302;2022-12-07T07:02:51;3.00;99.90
35796;DHT22;21916;52.428;13.302;2022-12-07T07:05:16;3.10;99.90
35796;DHT22;21916;52.428;13.302;2022-12-07T07:07:43;3.10;99.90
35796;DHT22;21916;52.428;13.302;2022-12-07T07:10:09;3.10;99.90
35796;DHT22;21916;52.428;13.302;2022-12-07T07:12:35;3.10;99.90
35796;DHT22;21916;52.428;13.302;2022-12-07T07:15:01;3.10;99.90
35796;DHT22;21916;52.428;13.302;2022-12-07T07:17:28;3.20;99.90
35796;DHT22;21916;52.428;13.302;2022-12-07T07:19:54;3.20;99.90
35796;DHT22;21916;52.428;13.302;2022-12-07T07:22:19;3.30;99.90
35796;DHT22;21916;52.428;13.302;2022-12-07T07:24:45;3.30;99.90
35796;DHT22;21916;52.428;13.302;2022-12-07T07:27:11;3.40;99.90
35796;DHT22;21916;52.428;13.302;2022-12-07T07:29:37;3.40;99.90
35796;DHT22;21916;52.428;13.302;2022-12-07T07:32:03;3.40;99.90
35796;DHT22;21916;52.428;13.302;2022-12-07T07:34:29;3.40;99.90
35796;DHT22;21916;52.428;13.302;2022-12-07T07:36:55;3.40;99.90
35796;DHT22;21916;52.428;13.302;2022-12-07T07:39:21;3.40;99.90
35796;DHT22;21916;52.428;13.302;2022-12-07T07:41:47;3.40;99.90
35796;DHT22;21916;52.428;13.302;2022-12-07T07:44:23;3.50;99.90
35796;DHT22;21916;52.428;13.302;2022-12-07T07:46:49;3.50;99.90
35796;DHT22;21916;52.428;13.302;2022-12-07T07:49:15;3.50;99.90
35796;DHT22;21916;52.428;13.302;2022-12-07T07:51:41;3.50;99.90
35796;DHT22;21916;52.428;13.302;2022-12-07T07:54:06;3.40;99.90
35796;DHT22;21916;52.428;13.302;2022-12-07T07:56:32;3.40;99.90
35796;DHT22;21916;52.428;13.302;2022-12-07T07:58:58;3.40;99.90
35796;DHT22;21916;52.428;13.302;2022-12-07T08:01:24;3.30;99.90
35796;DHT22;21916;52.428;13.302;2022-12-07T08:03:50;3.40;99.90
35796;DHT22;21916;52.428;13.302;2022-12-07T08:06:16;3.40;99.90
35796;DHT22;21916;52.428;13.302;2022-12-07T08:08:42;3.40;99.90
35796;DHT22;21916;52.428;13.302;2022-12-07T08:11:09;3.40;99.90
35796;DHT22;21916;52.428;13.302;2022-12-07T08:13:35;3.40;99.90
35796;DHT22;21916;52.428;13.302;2022-12-07T08:16:09;3.40;99.90
35796;DHT22;21916;52.428;13.302;2022-12-07T08:18:37;3.50;99.90
35796;DHT22;21916;52.428;13.302;2022-12-07T08:21:07;3.50;99.90
35796;DHT22;21916;52.428;13.302;2022-12-07T08:23:33;3.50;99.90
35796;DHT22;21916;52.428;13.302;2022-12-07T08:26:00;3.50;99.90
35796;DHT22;21916;52.428;13.302;2022-12-07T08:28:28;3.60;99.90
35796;DHT22;21916;52.428;13.302;2022-12-07T08:31:02;3.60;99.90
35796;DHT22;21916;52.428;13.302;2022-12-07T08:33:28;3.60;99.90
35796;DHT22;21916;52.428;13.302;2022-12-07T08:35:54;3.60;99.90
35796;DHT22;21916;52.428;13.302;2022-12-07T08:38:20;3.60;99.90
35796;DHT22;21916;52.428;13.302;2022-12-07T08:40:56;3.60;99.90
35796;DHT22;21916;52.428;13.302;2022-12-07T08:43:23;3.60;99.90
35796;DHT22;21916;52.428;13.302;2022-12-07T08:46:39;3.70;99.90
35796;DHT22;21916;52.428;13.302;2022-12-07T08:48:46;3.70;99.90
35796;DHT22;21916;52.428;13.302;2022-12-07T08:51:15;3.70;99.90
35796;DHT22;21916;52.428;13.302;2022-12-07T08:53:44;3.60;99.90
35796;DHT22;21916;52.428;13.302;2022-12-07T08:56:13;3.70;99.90
35796;DHT22;21916;52.428;13.302;2022-12-07T08:58:39;3.60;99.90
35796;DHT22;21916;52.428;13.302;2022-12-07T09:01:06;3.60;99.90
35796;DHT22;21916;52.428;13.302;2022-12-07T09:03:32;3.60;99.90
35796;DHT22;21916;52.428;13.302;2022-12-07T09:05:59;3.60;99.90
35796;DHT22;21916;52.428;13.302;2022-12-07T09:08:37;3.60;99.90
35796;DHT22;21916;52.428;13.302;2022-12-07T09:11:08;3.60;99.90
35796;DHT22;21916;52.428;13.302;2022-12-07T09:13:34;3.60;99.90
35796;DHT22;21916;52.428;13.302;2022-12-07T09:16:00;3.70;99.90
35796;DHT22;21916;52.428;13.302;2022-12-07T09:18:26;3.60;99.90
35796;DHT22;21916;52.428;13.302;2022-12-07T09:20:56;3.60;99.90
35796;DHT22;21916;52.428;13.302;2022-12-07T09:23:22;3.70;99.90
35796;DHT22;21916;52.428;13.302;2022-12-07T09:25:48;3.70;99.90
35796;DHT22;21916;52.428;13.302;2022-12-07T09:28:14;3.60;99.90
35796;DHT22;21916;52.428;13.302;2022-12-07T09:30:48;3.60;99.90
35796;DHT22;21916;52.428;13.302;2022-12-07T09:33:14;3.60;99.90
35796;DHT22;21916;52.428;13.302;2022-12-07T09:35:51;3.70;99.90
35796;DHT22;21916;52.428;13.302;2022-12-07T09:38:18;3.70;99.90
35796;DHT22;21916;52.428;13.302;2022-12-07T09:40:45;3.70;99.90
35796;DHT22;21916;52.428;13.302;2022-12-07T09:43:20;3.60;99.90
35796;DHT22;21916;52.428;13.302;2022-12-07T09:45:48;3.60;99.90
35796;DHT22;21916;52.428;13.302;2022-12-07T09:48:18;3.70;99.90
35796;DHT22;21916;52.428;13.302;2022-12-07T09:50:46;3.60;99.90
35796;DHT22;21916;52.428;13.302;2022-12-07T09:53:20;3.60;99.90
35796;DHT22;21916;52.428;13.302;2022-12-07T09:55:48;3.60;99.90
35796;DHT22;21916;52.428;13.302;2022-12-07T09:58:25;3.50;99.90
35796;DHT22;21916;52.428;13.302;2022-12-07T10:01:14;3.50;99.90
35796;DHT22;21916;52.428;13.302;2022-12-07T10:03:52;3.50;99.90
35796;DHT22;21916;52.428;13.302;2022-12-07T10:06:18;3.50;99.90
35796;DHT22;21916;52.428;13.302;2022-12-07T10:08:44;3.40;99.90
35796;DHT22;21916;52.428;13.302;2022-12-07T10:11:11;3.50;99.90
35796;DHT22;21916;52.428;13.302;2022-12-07T10:13:41;3.40;99.90
35796;DHT22;21916;52.428;13.302;2022-12-07T10:16:31;3.30;99.90
35796;DHT22;21916;52.428;13.302;2022-12-07T10:22:15;3.30;99.90
35796;DHT22;21916;52.428;13.302;2022-12-07T10:24:43;3.40;99.90
35796;DHT22;21916;52.428;13.302;2022-12-07T10:27:21;3.40;99.90
35796;DHT22;21916;52.428;13.302;2022-12-07T10:29:53;3.40;99.90
35796;DHT22;21916;52.428;13.302;2022-12-07T10:34:45;3.50;99.90
35796;DHT22;21916;52.428;13.302;2022-12-07T10:37:18;3.60;99.90
35796;DHT22;21916;52.428;13.302;2022-12-07T10:39:51;3.60;99.90
35796;DHT22;21916;52.428;13.302;2022-12-07T10:44:47;3.80;99.90
35796;DHT22;21916;52.428;13.302;2022-12-07T10:49:55;3.80;99.90
35796;DHT22;21916;52.428;13.302;2022-12-07T10:55:25;3.80;99.90
35796;DHT22;21916;52.428;13.302;2022-12-07T10:58:11;3.80;99.90
35796;DHT22;21916;52.428;13.302;2022-12-07T11:00:55;3.90;99.90
35796;DHT22;21916;52.428;13.302;2022-12-07T11:03:42;3.90;99.90
35796;DHT22;21916;52.428;13.302;2022-12-07T11:09:28;3.80;99.90
35796;DHT22;21916;52.428;13.302;2022-12-07T11:20:13;3.90;99.90
35796;DHT22;21916;52.428;13.302;2022-12-07T11:36:56;4.10;99.90
35796;DHT22;21916;52.428;13.302;2022-12-07T11:39:52;4.00;99.90
35796;DHT22;21916;52.428;13.302;2022-12-07T11:42:26;4.00;99.90
35796;DHT22;21916;52.428;13.302;2022-12-07T11:45:29;4.00;99.90
35796;DHT22;21916;52.428;13.302;2022-12-07T11:50:51;4.00;99.90
35796;DHT22;21916;52.428;13.302;2022-12-07T11:53:29;4.00;99.90
35796;DHT22;21916;52.428;13.302;2022-12-07T11:56:06;4.00;99.90
35796;DHT22;21916;52.428;13.302;2022-12-07T12:03:47;4.00;99.90
35796;DHT22;21916;52.428;13.302;2022-12-07T12:06:13;4.10;99.90
35796;DHT22;21916;52.428;13.302;2022-12-07T12:08:47;4.10;99.90
35796;DHT22;21916;52.428;13.302;2022-12-07T12:24:44;4.30;99.90
35796;DHT22;21916;52.428;13.302;2022-12-07T12:27:37;4.20;99.90
35796;DHT22;21916;52.428;13.302;2022-12-07T12:30:07;4.30;99.90
35796;DHT22;21916;52.428;13.302;2022-12-07T12:32:48;4.30;99.90
35796;DHT22;21916;52.428;13.302;2022-12-07T12:35:37;4.30;99.90
35796;DHT22;21916;52.428;13.302;2022-12-07T12:38:27;4.40;99.90
35796;DHT22;21916;52.428;13.302;2022-12-07T12:40:55;4.40;99.90
35796;DHT22;21916;52.428;13.302;2022-12-07T12:43:41;4.50;99.90
35796;DHT22;21916;52.428;13.302;2022-12-07T12:51:51;4.80;99.90
35796;DHT22;21916;52.428;13.302;2022-12-07T12:59:32;4.80;99.90
35796;DHT22;21916;52.428;13.302;2022-12-07T13:13:02;4.70;99.90
35796;DHT22;21916;52.428;13.302;2022-12-07T13:15:43;4.70;99.90
35796;DHT22;21916;52.428;13.302;2022-12-07T13:28:51;4.60;99.90
35796;DHT22;21916;52.428;13.302;2022-12-07T13:31:34;4.60;99.90
35796;DHT22;21916;52.428;13.302;2022-12-07T13:34:04;4.60;99.90
35796;DHT22;21916;52.428;13.302;2022-12-07T13:36:36;4.60;99.90
35796;DHT22;21916;52.428;13.302;2022-12-07T13:41:44;4.60;99.90
35796;DHT22;21916;52.428;13.302;2022-12-07T13:44:15;4.60;99.90
35796;DHT22;21916;52.428;13.302;2022-12-07T13:49:32;4.50;99.90
35796;DHT22;21916;52.428;13.302;2022-12-07T13:55:13;4.50;99.90
35796;DHT22;21916;52.428;13.302;2022-12-07T13:57:35;4.40;99.90
35796;DHT22;21916;52.428;13.302;2022-12-07T14:00:18;4.40;99.90
35796;DHT22;21916;52.428;13.302;2022-12-07T14:03:41;4.40;99.90
35796;DHT22;21916;52.428;13.302;2022-12-07T14:05:44;4.40;99.90
35796;DHT22;21916;52.428;13.302;2022-12-07T14:10:39;4.40;99.90
35796;DHT22;21916;52.428;13.302;2022-12-07T14:13:36;4.30;99.90
35796;DHT22;21916;52.428;13.302;2022-12-07T14:18:51;4.30;99.90
35796;DHT22;21916;52.428;13.302;2022-12-07T14:21:19;4.30;99.90
35796;DHT22;21916;52.428;13.302;2022-12-07T14:26:28;4.40;99.90
35796;DHT22;21916;52.428;13.302;2022-12-07T14:31:53;4.30;99.90
35796;DHT22;21916;52.428;13.302;2022-12-07T14:34:21;4.30;99.90
35796;DHT22;21916;52.428;13.302;2022-12-07T14:36:47;4.30;99.90
35796;DHT22;21916;52.428;13.302;2022-12-07T14:39:13;4.20;99.90
35796;DHT22;21916;52.428;13.302;2022-12-07T14:41:39;4.20;99.90
35796;DHT22;21916;52.428;13.302;2022-12-07T14:44:19;4.20;99.90
35796;DHT22;21916;52.428;13.302;2022-12-07T14:46:47;4.10;99.90
35796;DHT22;21916;52.428;13.302;2022-12-07T14:49:13;4.10;99.90
35796;DHT22;21916;52.428;13.302;2022-12-07T14:51:40;4.00;99.90
35796;DHT22;21916;52.428;13.302;2022-12-07T14:54:15;4.00;99.90
35796;DHT22;21916;52.428;13.302;2022-12-07T14:56:43;3.90;99.90
35796;DHT22;21916;52.428;13.302;2022-12-07T14:59:10;3.80;99.90
35796;DHT22;21916;52.428;13.302;2022-12-07T15:01:37;3.80;99.90
35796;DHT22;21916;52.428;13.302;2022-12-07T15:04:03;3.80;99.90
35796;DHT22;21916;52.428;13.302;2022-12-07T15:06:29;3.80;99.90
35796;DHT22;21916;52.428;13.302;2022-12-07T15:08:55;3.80;99.90
35796;DHT22;21916;52.428;13.302;2022-12-07T15:11:21;3.80;99.90
35796;DHT22;21916;52.428;13.302;2022-12-07T15:13:48;3.70;99.90
35796;DHT22;21916;52.428;13.302;2022-12-07T15:16:33;3.70;99.90
35796;DHT22;21916;52.428;13.302;2022-12-07T15:18:59;3.60;99.90
35796;DHT22;21916;52.428;13.302;2022-12-07T15:21:25;3.60;99.90
35796;DHT22;21916;52.428;13.302;2022-12-07T15:23:50;3.60;99.90
35796;DHT22;21916;52.428;13.302;2022-12-07T15:26:17;3.50;99.90
35796;DHT22;21916;52.428;13.302;2022-12-07T15:28:43;3.50;99.90
35796;DHT22;21916;52.428;13.302;2022-12-07T15:31:16;3.40;99.90
35796;DHT22;21916;52.428;13.302;2022-12-07T15:33:43;3.40;99.90
35796;DHT22;21916;52.428;13.302;2022-12-07T15:36:23;3.30;99.90
35796;DHT22;21916;52.428;13.302;2022-12-07T15:38:49;3.40;99.90
35796;DHT22;21916;52.428;13.302;2022-12-07T15:41:15;3.40;99.90
35796;DHT22;21916;52.428;13.302;2022-12-07T15:43:41;3.40;99.90
35796;DHT22;21916;52.428;13.302;2022-12-07T15:46:35;3.40;99.90
35796;DHT22;21916;52.428;13.302;2022-12-07T15:49:02;3.50;99.90
35796;DHT22;21916;52.428;13.302;2022-12-07T15:51:28;3.40;99.90
35796;DHT22;21916;52.428;13.302;2022-12-07T15:53:54;3.40;99.90
35796;DHT22;21916;52.428;13.302;2022-12-07T15:56:20;3.40;99.90
35796;DHT22;21916;52.428;13.302;2022-12-07T15:58:46;3.30;99.90
35796;DHT22;21916;52.428;13.302;2022-12-07T16:01:19;3.30;99.90
35796;DHT22;21916;52.428;13.302;2022-12-07T16:03:45;3.20;99.90
35796;DHT22;21916;52.428;13.302;2022-12-07T16:06:12;3.20;99.90
35796;DHT22;21916;52.428;13.302;2022-12-07T16:08:42;3.10;99.90
35796;DHT22;21916;52.428;13.302;2022-12-07T16:11:09;3.10;99.90
35796;DHT22;21916;52.428;13.302;2022-12-07T16:13:36;3.10;99.90
35796;DHT22;21916;52.428;13.302;2022-12-07T16:16:04;3.00;99.90
35796;DHT22;21916;52.428;13.302;2022-12-07T16:18:30;3.00;99.90
35796;DHT22;21916;52.428;13.302;2022-12-07T16:20:56;3.00;99.90
35796;DHT22;21916;52.428;13.302;2022-12-07T16:23:22;3.00;99.90
35796;DHT22;21916;52.428;13.302;2022-12-07T16:25:48;3.00;99.90
35796;DHT22;21916;52.428;13.302;2022-12-07T16:28:14;3.00;99.90
35796;DHT22;21916;52.428;13.302;2022-12-07T16:30:40;2.90;99.90
35796;DHT22;21916;52.428;13.302;2022-12-07T16:33:06;3.00;99.90
35796;DHT22;21916;52.428;13.302;2022-12-07T16:35:33;2.90;99.90
35796;DHT22;21916;52.428;13.302;2022-12-07T16:37:59;2.90;99.90
35796;DHT22;21916;52.428;13.302;2022-12-07T16:40:25;2.90;99.90
35796;DHT22;21916;52.428;13.302;2022-12-07T16:42:51;2.90;99.90
35796;DHT22;21916;52.428;13.302;2022-12-07T16:45:17;2.90;99.90
35796;DHT22;21916;52.428;13.302;2022-12-07T16:47:43;2.90;99.90
35796;DHT22;21916;52.428;13.302;2022-12-07T16:50:10;2.80;99.90
35796;DHT22;21916;52.428;13.302;2022-12-07T16:52:36;2.80;99.90
35796;DHT22;21916;52.428;13.302;2022-12-07T16:55:08;2.80;99.90
35796;DHT22;21916;52.428;13.302;2022-12-07T16:57:34;2.70;99.90
35796;DHT22;21916;52.428;13.302;2022-12-07T17:00:00;2.70;99.90
35796;DHT22;21916;52.428;13.302;2022-12-07T17:02:29;2.70;99.90
35796;DHT22;21916;52.428;13.302;2022-12-07T17:04:55;2.70;99.90
35796;DHT22;21916;52.428;13.302;2022-12-07T17:07:21;2.70;99.90
35796;DHT22;21916;52.428;13.302;2022-12-07T17:09:47;2.70;99.90
35796;DHT22;21916;52.428;13.302;2022-12-07T17:12:13;2.70;99.90
35796;DHT22;21916;52.428;13.302;2022-12-07T17:14:39;2.70;99.90
35796;DHT22;21916;52.428;13.302;2022-12-07T17:17:26;2.70;99.90
35796;DHT22;21916;52.428;13.302;2022-12-07T17:19:52;2.70;99.90
35796;DHT22;21916;52.428;13.302;2022-12-07T17:22:18;2.70;99.90
35796;DHT22;21916;52.428;13.302;2022-12-07T17:24:44;2.70;99.90
35796;DHT22;21916;52.428;13.302;2022-12-07T17:27:11;2.60;99.90
35796;DHT22;21916;52.428;13.302;2022-12-07T17:29:37;2.60;99.90
35796;DHT22;21916;52.428;13.302;2022-12-07T17:32:03;2.60;99.90
35796;DHT22;21916;52.428;13.302;2022-12-07T17:34:29;2.60;99.90
35796;DHT22;21916;52.428;13.302;2022-12-07T17:36:55;2.60;99.90
35796;DHT22;21916;52.428;13.302;2022-12-07T17:39:21;2.60;99.90
35796;DHT22;21916;52.428;13.302;2022-12-07T17:41:46;2.50;99.90
35796;DHT22;21916;52.428;13.302;2022-12-07T17:44:31;2.50;99.90
35796;DHT22;21916;52.428;13.302;2022-12-07T17:46:57;2.50;99.90
35796;DHT22;21916;52.428;13.302;2022-12-07T17:49:25;2.40;99.90
35796;DHT22;21916;52.428;13.302;2022-12-07T17:51:54;2.40;99.90
35796;DHT22;21916;52.428;13.302;2022-12-07T17:54:39;2.40;99.90
35796;DHT22;21916;52.428;13.302;2022-12-07T17:57:08;2.40;99.90
35796;DHT22;21916;52.428;13.302;2022-12-07T17:59:34;2.30;99.90
35796;DHT22;21916;52.428;13.302;2022-12-07T18:02:00;2.20;99.90
35796;DHT22;21916;52.428;13.302;2022-12-07T18:04:29;2.20;99.90
35796;DHT22;21916;52.428;13.302;2022-12-07T18:06:55;2.20;99.90
35796;DHT22;21916;52.428;13.302;2022-12-07T18:09:21;2.20;99.90